This is the latest recevied weather packets stored in our database for station/object KC1OEK-13. If no packets are shown the sender has not sent any weather packets the latest 10 day(s).
| Time | Temp. | Humidity | Pressure | Rain* | Wind** | Luminosity | Snow |
|---|---|---|---|---|---|---|---|
| 1787615518 | 20.56° C | 78% | 1016 hPa | 0 mm | - | 0 W/m² | - |
| 1787615213 | 20.56° C | 78% | 1015.9 hPa | 0 mm | - | 1 W/m² | - |
| 1787614909 | 21.11° C | 76% | 1016.2 hPa | 0 mm | - | 2 W/m² | - |
| 1787614604 | 21.11° C | 77% | 1015.8 hPa | 0 mm | - | 4 W/m² | - |
| 1787614302 | 21.67° C | 76% | 1015.8 hPa | 0 mm | - | 6 W/m² | - |
| 1787613997 | 21.11° C | 77% | 1016 hPa | 0 mm | - | 7 W/m² | - |
| 1787613694 | 21.67° C | 76% | 1015.6 hPa | 0 mm | - | 9 W/m² | - |
| 1787613388 | 21.67° C | 75% | 1015.6 hPa | 0 mm | - | 11 W/m² | - |
| 1787613084 | 21.67° C | 74% | 1015.9 hPa | 0 mm | - | 14 W/m² | - |
| 1787612781 | 22.22° C | 72% | 1015.8 hPa | 0 mm | - | 17 W/m² | - |
| 1787612477 | 22.22° C | 71% | 1015.7 hPa | 0 mm | - | 21 W/m² | - |
| 1787612172 | 22.22° C | 69% | 1015.7 hPa | 0 mm | - | 23 W/m² | - |
| 1787611868 | 22.22° C | 69% | 1015.7 hPa | 0 mm | - | 22 W/m² | - |
| 1787611564 | 22.78° C | 67% | 1015.7 hPa | 0 mm | - | 23 W/m² | - |
| 1787611260 | 23.33° C | 65% | 1015.6 hPa | 0 mm | - | 26 W/m² | - |
| 1787610955 | 23.89° C | 64% | 1015.8 hPa | 0 mm | - | 30 W/m² | - |
| 1787610651 | 24.44° C | 61% | 1015.7 hPa | 0 mm | - | 33 W/m² | - |
| 1787610346 | 25° C | 59% | 1015.5 hPa | 0 mm | - | 58 W/m² | - |
| 1787610045 | 25.56° C | 58% | 1015.7 hPa | 0 mm | - | 104 W/m² | - |
| 1787609739 | 25.56° C | 57% | 1015.6 hPa | 0 mm | - | 121 W/m² | - |
| 1787609434 | 25.56° C | 57% | 1015.7 hPa | 0 mm | - | 134 W/m² | - |
| 1787609134 | 25.56° C | 60% | 1015.6 hPa | 0 mm | - | 166 W/m² | - |
| 1787608829 | 25.56° C | 59% | 1015.5 hPa | 0 mm | - | 169 W/m² | - |
| 1787608528 | 24.44° C | 61% | 1015.5 hPa | 0 mm | - | 127 W/m² | - |
| 1787608224 | 25° C | 61% | 1015.6 hPa | 0 mm | - | 108 W/m² | - |
* Rain latest hour (hover to see other rain measurements)
** Current wind speed in m/s (hover to see current wind gust speed)